sensor_id;sensor_type;location;lat;lon;timestamp;pressure;altitude;pressure_sealevel;temperature;humidity
13954;BME280;7049;49.444;8.522;2023-05-02T00:00:42;77625.56;;;-3.47;78.49
13954;BME280;7049;49.444;8.522;2023-05-02T00:05:45;77621.38;;;-3.47;78.64
13954;BME280;7049;49.444;8.522;2023-05-02T00:10:47;77621.38;;;-3.47;78.47
13954;BME280;7049;49.444;8.522;2023-05-02T00:15:49;77627.66;;;-3.47;78.64
13954;BME280;7049;49.444;8.522;2023-05-02T00:20:52;77638.13;;;-3.47;78.63
13954;BME280;7049;49.444;8.522;2023-05-02T00:25:56;77646.50;;;-3.47;78.44
13954;BME280;7049;49.444;8.522;2023-05-02T00:30:57;77656.94;;;-3.47;78.70
13954;BME280;7049;49.444;8.522;2023-05-02T00:36:00;77671.59;;;-3.47;78.72
13954;BME280;7049;49.444;8.522;2023-05-02T00:41:01;77688.34;;;-3.47;78.77
13954;BME280;7049;49.444;8.522;2023-05-02T00:46:05;77692.53;;;-3.47;78.52
13954;BME280;7049;49.444;8.522;2023-05-02T00:51:08;77709.25;;;-3.47;78.23
13954;BME280;7049;49.444;8.522;2023-05-02T00:56:11;77717.63;;;-3.47;78.25
13954;BME280;7049;49.444;8.522;2023-05-02T01:01:25;77726.00;;;-3.47;78.10
13954;BME280;7049;49.444;8.522;2023-05-02T01:06:38;77736.47;;;-3.47;77.79
13954;BME280;7049;49.444;8.522;2023-05-02T01:11:51;-11160.47;;;-3.47;77.65
13954;BME280;7049;49.444;8.522;2023-05-02T01:16:55;-11160.47;;;-3.47;77.88
13954;BME280;7049;49.444;8.522;2023-05-02T01:22:01;-11160.47;;;-3.47;77.97
13954;BME280;7049;49.444;8.522;2023-05-02T01:27:13;-11160.47;;;-3.47;78.23
13954;BME280;7049;49.444;8.522;2023-05-02T01:32:19;-11160.47;;;-3.47;78.81
13954;BME280;7049;49.444;8.522;2023-05-02T01:37:21;-11160.47;;;-3.47;79.24
13954;BME280;7049;49.444;8.522;2023-05-02T01:42:24;-11160.47;;;-3.47;79.50
13954;BME280;7049;49.444;8.522;2023-05-02T01:47:28;-11160.47;;;-3.47;79.89
13954;BME280;7049;49.444;8.522;2023-05-02T01:52:32;-11160.47;;;-3.47;80.20
13954;BME280;7049;49.444;8.522;2023-05-02T01:57:38;-11160.47;;;-3.47;80.48
13954;BME280;7049;49.444;8.522;2023-05-02T02:02:42;-11160.47;;;-3.47;80.41
13954;BME280;7049;49.444;8.522;2023-05-02T02:07:45;-11160.47;;;-3.47;80.82
13954;BME280;7049;49.444;8.522;2023-05-02T02:12:50;-11160.47;;;-3.47;81.03
13954;BME280;7049;49.444;8.522;2023-05-02T02:17:58;-11160.47;;;-3.47;81.30
13954;BME280;7049;49.444;8.522;2023-05-02T02:23:02;-11160.47;;;-3.47;81.73
13954;BME280;7049;49.444;8.522;2023-05-02T02:28:06;-11160.47;;;-3.47;81.99
13954;BME280;7049;49.444;8.522;2023-05-02T02:33:08;-11160.47;;;-3.47;82.63
13954;BME280;7049;49.444;8.522;2023-05-02T02:38:15;-11160.47;;;-3.47;82.92
13954;BME280;7049;49.444;8.522;2023-05-02T02:43:24;-11160.47;;;-3.47;83.41
13954;BME280;7049;49.444;8.522;2023-05-02T02:48:32;-11160.47;;;-3.47;83.73
13954;BME280;7049;49.444;8.522;2023-05-02T02:53:45;-11160.47;;;-3.47;84.02
13954;BME280;7049;49.444;8.522;2023-05-02T02:58:56;-11160.47;;;-3.47;84.43
13954;BME280;7049;49.444;8.522;2023-05-02T03:04:02;-11160.47;;;-3.47;84.68
13954;BME280;7049;49.444;8.522;2023-05-02T03:09:05;-11160.47;;;-3.47;85.17
13954;BME280;7049;49.444;8.522;2023-05-02T03:14:15;-11160.47;;;-3.47;85.92
13954;BME280;7049;49.444;8.522;2023-05-02T03:19:18;-11160.47;;;-3.47;85.88
13954;BME280;7049;49.444;8.522;2023-05-02T03:24:19;-11160.47;;;-3.47;86.03
13954;BME280;7049;49.444;8.522;2023-05-02T03:29:21;-11160.47;;;-3.47;86.45
13954;BME280;7049;49.444;8.522;2023-05-02T03:34:25;-11160.47;;;-3.47;86.21
13954;BME280;7049;49.444;8.522;2023-05-02T03:39:26;-11160.47;;;-3.47;86.42
13954;BME280;7049;49.444;8.522;2023-05-02T03:44:27;-11160.47;;;-3.47;86.38
13954;BME280;7049;49.444;8.522;2023-05-02T03:49:33;-11160.47;;;-3.47;86.72
13954;BME280;7049;49.444;8.522;2023-05-02T03:54:35;-11160.47;;;-3.47;86.70
13954;BME280;7049;49.444;8.522;2023-05-02T03:59:37;-11160.47;;;-3.47;87.56
13954;BME280;7049;49.444;8.522;2023-05-02T04:04:42;-11160.47;;;-3.47;87.77
13954;BME280;7049;49.444;8.522;2023-05-02T04:09:43;-11160.47;;;-3.47;87.89
13954;BME280;7049;49.444;8.522;2023-05-02T04:14:45;-11160.47;;;-3.47;87.96
13954;BME280;7049;49.444;8.522;2023-05-02T04:19:47;-11160.47;;;-3.47;88.37
13954;BME280;7049;49.444;8.522;2023-05-02T04:24:50;-11160.47;;;-3.47;88.21
13954;BME280;7049;49.444;8.522;2023-05-02T04:29:52;-11160.47;;;-3.47;88.50
13954;BME280;7049;49.444;8.522;2023-05-02T04:34:54;-11160.47;;;-3.47;88.85
13954;BME280;7049;49.444;8.522;2023-05-02T04:39:57;-11160.47;;;-3.47;89.44
13954;BME280;7049;49.444;8.522;2023-05-02T04:44:58;-11160.47;;;-3.47;89.74
13954;BME280;7049;49.444;8.522;2023-05-02T04:50:01;-11160.47;;;-3.47;90.13
13954;BME280;7049;49.444;8.522;2023-05-02T04:55:03;-11160.47;;;-3.47;90.84
13954;BME280;7049;49.444;8.522;2023-05-02T05:00:06;-11160.47;;;-3.47;91.11
13954;BME280;7049;49.444;8.522;2023-05-02T05:05:09;-11160.47;;;-3.47;91.76
13954;BME280;7049;49.444;8.522;2023-05-02T05:10:11;-11160.47;;;-3.47;92.46
13954;BME280;7049;49.444;8.522;2023-05-02T05:15:12;-11160.47;;;-3.47;92.63
13954;BME280;7049;49.444;8.522;2023-05-02T05:20:15;-11160.47;;;-3.47;93.32
13954;BME280;7049;49.444;8.522;2023-05-02T05:25:17;-11160.47;;;-3.47;93.44
13954;BME280;7049;49.444;8.522;2023-05-02T05:30:18;-11160.47;;;-3.47;93.77
13954;BME280;7049;49.444;8.522;2023-05-02T05:35:22;-11160.47;;;-3.47;93.84
13954;BME280;7049;49.444;8.522;2023-05-02T05:40:24;-11160.47;;;-3.47;93.55
13954;BME280;7049;49.444;8.522;2023-05-02T05:45:25;-11160.47;;;-3.47;93.39
13954;BME280;7049;49.444;8.522;2023-05-02T05:50:28;-11160.47;;;-3.47;93.07
13954;BME280;7049;49.444;8.522;2023-05-02T05:55:29;-11160.47;;;-3.47;93.19
13954;BME280;7049;49.444;8.522;2023-05-02T06:00:33;-11160.47;;;-3.47;93.38
13954;BME280;7049;49.444;8.522;2023-05-02T06:05:36;-11160.47;;;-3.47;93.24
13954;BME280;7049;49.444;8.522;2023-05-02T06:10:37;-11160.47;;;-3.47;92.56
13954;BME280;7049;49.444;8.522;2023-05-02T06:15:39;-11160.47;;;-3.47;92.00
13954;BME280;7049;49.444;8.522;2023-05-02T06:20:42;-11160.47;;;-3.47;91.92
13954;BME280;7049;49.444;8.522;2023-05-02T06:25:43;-11160.47;;;-3.47;92.03
13954;BME280;7049;49.444;8.522;2023-05-02T06:30:44;-11160.47;;;-3.47;91.57
13954;BME280;7049;49.444;8.522;2023-05-02T06:35:51;-11160.47;;;-3.47;90.85
13954;BME280;7049;49.444;8.522;2023-05-02T06:40:52;-11160.47;;;-3.47;90.27
13954;BME280;7049;49.444;8.522;2023-05-02T06:45:54;-11160.47;;;-3.47;90.13
13954;BME280;7049;49.444;8.522;2023-05-02T06:50:58;-11160.47;;;-3.47;89.46
13954;BME280;7049;49.444;8.522;2023-05-02T06:56:02;-11160.47;;;-3.47;88.83
13954;BME280;7049;49.444;8.522;2023-05-02T07:01:04;-11160.47;;;-3.47;88.32
13954;BME280;7049;49.444;8.522;2023-05-02T07:06:07;-11160.47;;;-3.47;87.77
13954;BME280;7049;49.444;8.522;2023-05-02T07:11:08;-11160.47;;;-3.47;87.32
13954;BME280;7049;49.444;8.522;2023-05-02T07:16:10;-11160.47;;;-3.47;86.95
13954;BME280;7049;49.444;8.522;2023-05-02T07:21:13;-11160.47;;;-3.47;86.19
13954;BME280;7049;49.444;8.522;2023-05-02T07:26:14;-11160.47;;;-3.47;85.56
13954;BME280;7049;49.444;8.522;2023-05-02T07:31:18;-11160.47;;;-3.47;85.36
13954;BME280;7049;49.444;8.522;2023-05-02T07:36:21;-11160.47;;;-3.47;84.27
13954;BME280;7049;49.444;8.522;2023-05-02T07:41:22;-11160.47;;;-3.47;82.31
13954;BME280;7049;49.444;8.522;2023-05-02T07:46:24;-11160.47;;;-3.47;80.03
13954;BME280;7049;49.444;8.522;2023-05-02T07:51:26;-11160.47;;;-3.47;78.08
13954;BME280;7049;49.444;8.522;2023-05-02T07:56:28;-11160.47;;;-3.47;76.95
13954;BME280;7049;49.444;8.522;2023-05-02T08:01:30;-11160.47;;;-3.47;73.88
13954;BME280;7049;49.444;8.522;2023-05-02T08:06:32;-11160.47;;;-3.47;70.96
13954;BME280;7049;49.444;8.522;2023-05-02T08:11:34;-11160.47;;;-3.47;68.62
13954;BME280;7049;49.444;8.522;2023-05-02T08:16:35;-11160.47;;;-3.47;64.66
13954;BME280;7049;49.444;8.522;2023-05-02T08:21:38;-11160.47;;;-3.47;62.02
13954;BME280;7049;49.444;8.522;2023-05-02T08:26:40;-11160.47;;;-3.47;60.35
13954;BME280;7049;49.444;8.522;2023-05-02T08:31:41;-11160.47;;;-3.47;58.97
13954;BME280;7049;49.444;8.522;2023-05-02T08:36:45;-11160.47;;;-3.47;59.07
13954;BME280;7049;49.444;8.522;2023-05-02T08:41:47;-11160.47;;;-3.47;58.73
13954;BME280;7049;49.444;8.522;2023-05-02T08:46:49;-11160.47;;;-3.47;56.65
13954;BME280;7049;49.444;8.522;2023-05-02T08:51:56;-11160.47;;;-3.47;55.79
13954;BME280;7049;49.444;8.522;2023-05-02T08:57:02;-11160.47;;;-3.47;56.15
13954;BME280;7049;49.444;8.522;2023-05-02T09:02:36;-11160.47;;;-3.47;54.40
13954;BME280;7049;49.444;8.522;2023-05-02T09:07:55;-11160.47;;;-3.47;53.87
13954;BME280;7049;49.444;8.522;2023-05-02T09:18:37;-11160.47;;;-3.47;49.82
13954;BME280;7049;49.444;8.522;2023-05-02T09:23:43;-11160.47;;;-3.47;50.03
13954;BME280;7049;49.444;8.522;2023-05-02T09:28:47;-11160.47;;;-3.47;51.67
13954;BME280;7049;49.444;8.522;2023-05-02T09:33:54;-11160.47;;;-3.47;51.71
13954;BME280;7049;49.444;8.522;2023-05-02T09:39:08;-11160.47;;;-3.47;51.35
13954;BME280;7049;49.444;8.522;2023-05-02T09:44:12;-11160.47;;;-3.47;52.49
13954;BME280;7049;49.444;8.522;2023-05-02T09:49:15;-11160.47;;;-3.47;53.29
13954;BME280;7049;49.444;8.522;2023-05-02T09:54:36;-11160.47;;;-3.47;54.32
13954;BME280;7049;49.444;8.522;2023-05-02T09:59:40;-11160.47;;;-3.47;55.26
13954;BME280;7049;49.444;8.522;2023-05-02T10:04:45;-11160.47;;;-3.47;55.17
13954;BME280;7049;49.444;8.522;2023-05-02T10:09:50;-11160.47;;;-3.47;54.88
13954;BME280;7049;49.444;8.522;2023-05-02T10:14:59;-11160.47;;;-3.47;54.89
13954;BME280;7049;49.444;8.522;2023-05-02T10:20:03;-11160.47;;;-3.47;56.33
13954;BME280;7049;49.444;8.522;2023-05-02T10:25:08;-11160.47;;;-3.47;56.74
13954;BME280;7049;49.444;8.522;2023-05-02T10:30:12;-11160.47;;;-3.47;57.76
13954;BME280;7049;49.444;8.522;2023-05-02T10:35:15;-11160.47;;;-3.47;58.55
13954;BME280;7049;49.444;8.522;2023-05-02T10:40:22;-11160.47;;;-3.47;58.06
13954;BME280;7049;49.444;8.522;2023-05-02T10:45:31;-11160.47;;;-3.47;58.65
13954;BME280;7049;49.444;8.522;2023-05-02T10:50:41;-11160.47;;;-3.47;58.94
13954;BME280;7049;49.444;8.522;2023-05-02T10:56:10;-11160.47;;;-3.47;57.30
13954;BME280;7049;49.444;8.522;2023-05-02T11:01:41;-11160.47;;;-3.47;53.50
13954;BME280;7049;49.444;8.522;2023-05-02T11:07:16;-11160.47;;;-3.47;49.14
13954;BME280;7049;49.444;8.522;2023-05-02T11:17:59;-11160.47;;;-3.47;45.99
13954;BME280;7049;49.444;8.522;2023-05-02T11:23:20;-11160.47;;;-3.47;44.49
13954;BME280;7049;49.444;8.522;2023-05-02T11:28:39;-11160.47;;;-3.47;43.65
13954;BME280;7049;49.444;8.522;2023-05-02T11:33:54;-11160.47;;;-3.47;45.61
13954;BME280;7049;49.444;8.522;2023-05-02T11:38:56;-11160.47;;;-3.47;41.53
13954;BME280;7049;49.444;8.522;2023-05-02T11:44:01;-11160.47;;;-3.47;42.24
13954;BME280;7049;49.444;8.522;2023-05-02T11:49:04;-11160.47;;;-3.47;41.42
13954;BME280;7049;49.444;8.522;2023-05-02T11:54:07;-11160.47;;;-3.47;41.17
13954;BME280;7049;49.444;8.522;2023-05-02T11:59:09;-11160.47;;;-3.47;40.94
13954;BME280;7049;49.444;8.522;2023-05-02T12:04:12;-11160.47;;;-3.47;40.90
13954;BME280;7049;49.444;8.522;2023-05-02T12:09:14;-11160.47;;;-3.47;40.89
13954;BME280;7049;49.444;8.522;2023-05-02T12:14:16;-11160.47;;;-3.47;39.48
13954;BME280;7049;49.444;8.522;2023-05-02T12:19:19;-11160.47;;;-3.47;39.35
13954;BME280;7049;49.444;8.522;2023-05-02T12:24:21;-11160.47;;;-3.47;39.66
13954;BME280;7049;49.444;8.522;2023-05-02T12:29:36;-11160.47;;;-3.47;38.92
13954;BME280;7049;49.444;8.522;2023-05-02T12:34:39;-11160.47;;;-3.47;38.03
13954;BME280;7049;49.444;8.522;2023-05-02T12:39:41;-11160.47;;;-3.47;38.94
13954;BME280;7049;49.444;8.522;2023-05-02T12:44:44;-11160.47;;;-3.47;38.89
13954;BME280;7049;49.444;8.522;2023-05-02T12:49:50;-11160.47;;;-3.47;37.81
13954;BME280;7049;49.444;8.522;2023-05-02T12:54:52;-11160.47;;;-3.47;37.66
13954;BME280;7049;49.444;8.522;2023-05-02T12:59:53;-11160.47;;;-3.47;37.73
13954;BME280;7049;49.444;8.522;2023-05-02T13:04:56;-11160.47;;;-3.47;38.29
13954;BME280;7049;49.444;8.522;2023-05-02T13:09:57;-11160.47;;;-3.47;38.50
13954;BME280;7049;49.444;8.522;2023-05-02T13:14:59;-11160.47;;;-3.47;37.85
13954;BME280;7049;49.444;8.522;2023-05-02T13:20:02;-11160.47;;;-3.47;37.89
13954;BME280;7049;49.444;8.522;2023-05-02T13:25:05;-11160.47;;;-3.47;36.74
13954;BME280;7049;49.444;8.522;2023-05-02T13:30:08;-11160.47;;;-3.47;37.04
13954;BME280;7049;49.444;8.522;2023-05-02T13:35:12;-11160.47;;;-3.47;36.37
13954;BME280;7049;49.444;8.522;2023-05-02T13:40:15;-11160.47;;;-3.47;36.14
13954;BME280;7049;49.444;8.522;2023-05-02T13:45:16;-11160.47;;;-3.47;35.19
13954;BME280;7049;49.444;8.522;2023-05-02T13:50:19;-11160.47;;;-3.47;35.46
13954;BME280;7049;49.444;8.522;2023-05-02T13:55:20;-11160.47;;;-3.47;34.81
13954;BME280;7049;49.444;8.522;2023-05-02T14:00:22;-11160.47;;;-3.47;34.14
13954;BME280;7049;49.444;8.522;2023-05-02T14:05:25;-11160.47;;;-3.47;33.58
13954;BME280;7049;49.444;8.522;2023-05-02T14:10:26;-11160.47;;;-3.47;33.40
13954;BME280;7049;49.444;8.522;2023-05-02T14:15:28;-11160.47;;;-3.47;33.73
13954;BME280;7049;49.444;8.522;2023-05-02T14:20:31;-11160.47;;;-3.47;32.98
13954;BME280;7049;49.444;8.522;2023-05-02T14:25:32;-11160.47;;;-3.47;33.77
13954;BME280;7049;49.444;8.522;2023-05-02T14:30:34;-11160.47;;;-3.47;33.09
13954;BME280;7049;49.444;8.522;2023-05-02T14:35:36;-11160.47;;;-3.47;33.45
13954;BME280;7049;49.444;8.522;2023-05-02T14:40:38;-11160.47;;;-3.47;33.75
13954;BME280;7049;49.444;8.522;2023-05-02T14:45:39;-11160.47;;;-3.47;33.71
13954;BME280;7049;49.444;8.522;2023-05-02T14:50:42;-11160.47;;;-3.47;33.66
13954;BME280;7049;49.444;8.522;2023-05-02T14:55:44;-11160.47;;;-3.47;33.23
13954;BME280;7049;49.444;8.522;2023-05-02T15:00:45;-11160.47;;;-3.47;33.31
13954;BME280;7049;49.444;8.522;2023-05-02T15:05:48;-11160.47;;;-3.47;32.52
13954;BME280;7049;49.444;8.522;2023-05-02T15:10:50;-11160.47;;;-3.47;32.25
13954;BME280;7049;49.444;8.522;2023-05-02T15:15:51;-11160.47;;;-3.47;32.13
13954;BME280;7049;49.444;8.522;2023-05-02T15:20:54;-11160.47;;;-3.47;32.00
13954;BME280;7049;49.444;8.522;2023-05-02T15:25:56;-11160.47;;;-3.47;30.68
13954;BME280;7049;49.444;8.522;2023-05-02T15:30:57;-11160.47;;;-3.47;30.48
13954;BME280;7049;49.444;8.522;2023-05-02T15:36:03;-11160.47;;;-3.47;31.12
13954;BME280;7049;49.444;8.522;2023-05-02T15:41:05;-11160.47;;;-3.47;31.05
13954;BME280;7049;49.444;8.522;2023-05-02T15:46:06;-11160.47;;;-3.47;30.40
13954;BME280;7049;49.444;8.522;2023-05-02T15:51:09;-11160.47;;;-3.47;30.80
13954;BME280;7049;49.444;8.522;2023-05-02T15:56:14;-11160.47;;;-3.47;31.31
13954;BME280;7049;49.444;8.522;2023-05-02T16:01:16;-11160.47;;;-3.47;30.73
13954;BME280;7049;49.444;8.522;2023-05-02T16:06:22;-11160.47;;;-3.47;30.80
13954;BME280;7049;49.444;8.522;2023-05-02T16:11:24;-11160.47;;;-3.47;30.78
13954;BME280;7049;49.444;8.522;2023-05-02T16:16:26;-11160.47;;;-3.47;31.09
13954;BME280;7049;49.444;8.522;2023-05-02T16:21:31;-11160.47;;;-3.47;31.43
13954;BME280;7049;49.444;8.522;2023-05-02T16:26:33;-11160.47;;;-3.47;32.15
13954;BME280;7049;49.444;8.522;2023-05-02T16:31:35;-11160.47;;;-3.47;32.74
13954;BME280;7049;49.444;8.522;2023-05-02T16:36:39;-11160.47;;;-3.47;33.15
13954;BME280;7049;49.444;8.522;2023-05-02T16:41:42;-11160.47;;;-3.47;32.38
13954;BME280;7049;49.444;8.522;2023-05-02T16:46:45;-11160.47;;;-3.47;32.92
13954;BME280;7049;49.444;8.522;2023-05-02T16:51:54;-11160.47;;;-3.47;32.95
13954;BME280;7049;49.444;8.522;2023-05-02T16:56:59;-11160.47;;;-3.47;32.71
13954;BME280;7049;49.444;8.522;2023-05-02T17:02:01;-11160.47;;;-3.47;33.10
13954;BME280;7049;49.444;8.522;2023-05-02T17:07:06;-11160.47;;;-3.47;33.14
13954;BME280;7049;49.444;8.522;2023-05-02T17:12:11;-11160.47;;;-3.47;33.28
13954;BME280;7049;49.444;8.522;2023-05-02T17:17:13;-11160.47;;;-3.47;32.78
13954;BME280;7049;49.444;8.522;2023-05-02T17:22:18;-11160.47;;;-3.47;31.57
13954;BME280;7049;49.444;8.522;2023-05-02T17:27:22;-11160.47;;;-3.47;31.18
13954;BME280;7049;49.444;8.522;2023-05-02T17:32:23;-11160.47;;;-3.47;30.52
13954;BME280;7049;49.444;8.522;2023-05-02T17:37:26;-11160.47;;;-3.47;32.15
13954;BME280;7049;49.444;8.522;2023-05-02T17:42:28;-11160.47;;;-3.47;33.20
13954;BME280;7049;49.444;8.522;2023-05-02T17:47:29;-11160.47;;;-3.47;33.95
13954;BME280;7049;49.444;8.522;2023-05-02T17:52:32;-11160.47;;;-3.47;35.09
13954;BME280;7049;49.444;8.522;2023-05-02T17:57:34;-11160.47;;;-3.47;35.79
13954;BME280;7049;49.444;8.522;2023-05-02T18:02:36;-11160.47;;;-3.47;36.12
13954;BME280;7049;49.444;8.522;2023-05-02T18:07:39;-11160.47;;;-3.47;36.58
13954;BME280;7049;49.444;8.522;2023-05-02T18:12:44;-11160.47;;;-3.47;37.04
13954;BME280;7049;49.444;8.522;2023-05-02T18:17:47;-11160.47;;;-3.47;37.63
13954;BME280;7049;49.444;8.522;2023-05-02T18:22:50;-11160.47;;;-3.47;37.71
13954;BME280;7049;49.444;8.522;2023-05-02T18:27:57;-11160.47;;;-3.47;37.83
13954;BME280;7049;49.444;8.522;2023-05-02T18:32:59;-11160.47;;;-3.47;37.87
13954;BME280;7049;49.444;8.522;2023-05-02T18:38:06;-11160.47;;;-3.47;38.13
13954;BME280;7049;49.444;8.522;2023-05-02T18:43:09;-11160.47;;;-3.47;38.34
13954;BME280;7049;49.444;8.522;2023-05-02T18:48:11;-11160.47;;;-3.47;38.79
13954;BME280;7049;49.444;8.522;2023-05-02T18:53:15;-11160.47;;;-3.47;38.90
13954;BME280;7049;49.444;8.522;2023-05-02T18:58:21;-11160.47;;;-3.47;39.30
13954;BME280;7049;49.444;8.522;2023-05-02T19:03:23;-11160.47;;;-3.47;39.80
13954;BME280;7049;49.444;8.522;2023-05-02T19:08:33;-11160.47;;;-3.47;40.19
13954;BME280;7049;49.444;8.522;2023-05-02T19:13:38;-11160.47;;;-3.47;40.56
13954;BME280;7049;49.444;8.522;2023-05-02T19:18:43;-11160.47;;;-3.47;40.54
13954;BME280;7049;49.444;8.522;2023-05-02T19:23:48;-11160.47;;;-3.47;40.77
13954;BME280;7049;49.444;8.522;2023-05-02T19:28:52;-11160.47;;;-3.47;41.20
13954;BME280;7049;49.444;8.522;2023-05-02T19:33:58;-11160.47;;;-3.47;41.90
13954;BME280;7049;49.444;8.522;2023-05-02T19:39:05;-11160.47;;;-3.47;42.23
13954;BME280;7049;49.444;8.522;2023-05-02T19:44:09;-11160.47;;;-3.47;42.96
13954;BME280;7049;49.444;8.522;2023-05-02T19:49:11;-11160.47;;;-3.47;43.38
13954;BME280;7049;49.444;8.522;2023-05-02T19:54:15;-11160.47;;;-3.47;43.50
13954;BME280;7049;49.444;8.522;2023-05-02T19:59:18;-11160.47;;;-3.47;43.60
13954;BME280;7049;49.444;8.522;2023-05-02T20:04:26;-11160.47;;;-3.47;43.32
13954;BME280;7049;49.444;8.522;2023-05-02T20:09:35;-11160.47;;;-3.47;43.32
13954;BME280;7049;49.444;8.522;2023-05-02T20:14:38;-11160.47;;;-3.47;43.87
13954;BME280;7049;49.444;8.522;2023-05-02T20:19:41;-11160.47;;;-3.47;44.22
13954;BME280;7049;49.444;8.522;2023-05-02T20:24:47;-11160.47;;;-3.47;43.86
13954;BME280;7049;49.444;8.522;2023-05-02T20:29:49;-11160.47;;;-3.47;44.31
13954;BME280;7049;49.444;8.522;2023-05-02T20:34:52;-11160.47;;;-3.47;44.54
13954;BME280;7049;49.444;8.522;2023-05-02T20:39:56;-11160.47;;;-3.47;45.18
13954;BME280;7049;49.444;8.522;2023-05-02T20:44:59;-11160.47;;;-3.47;46.16
13954;BME280;7049;49.444;8.522;2023-05-02T20:50:01;-11160.47;;;-3.47;46.42
13954;BME280;7049;49.444;8.522;2023-05-02T20:55:05;-11160.47;;;-3.47;47.75
13954;BME280;7049;49.444;8.522;2023-05-02T21:00:08;-11160.47;;;-3.47;49.10
13954;BME280;7049;49.444;8.522;2023-05-02T21:05:10;-11160.47;;;-3.47;49.65
13954;BME280;7049;49.444;8.522;2023-05-02T21:10:13;-11160.47;;;-3.47;50.80
13954;BME280;7049;49.444;8.522;2023-05-02T21:15:15;-11160.47;;;-3.47;51.69
13954;BME280;7049;49.444;8.522;2023-05-02T21:20:16;-11160.47;;;-3.47;51.92
13954;BME280;7049;49.444;8.522;2023-05-02T21:25:19;-11160.47;;;-3.47;52.52
13954;BME280;7049;49.444;8.522;2023-05-02T21:30:20;-11160.47;;;-3.47;53.02
13954;BME280;7049;49.444;8.522;2023-05-02T21:35:23;-11160.47;;;-3.47;53.09
13954;BME280;7049;49.444;8.522;2023-05-02T21:40:29;-11160.47;;;-3.47;53.51
13954;BME280;7049;49.444;8.522;2023-05-02T21:45:31;-11160.47;;;-3.47;53.80
13954;BME280;7049;49.444;8.522;2023-05-02T21:50:32;-11160.47;;;-3.47;54.54
13954;BME280;7049;49.444;8.522;2023-05-02T21:55:35;-11160.47;;;-3.47;54.56
13954;BME280;7049;49.444;8.522;2023-05-02T22:00:39;-11160.47;;;-3.47;55.11
13954;BME280;7049;49.444;8.522;2023-05-02T22:05:41;-11160.47;;;-3.47;55.81
13954;BME280;7049;49.444;8.522;2023-05-02T22:10:44;-11160.47;;;-3.47;56.41
13954;BME280;7049;49.444;8.522;2023-05-02T22:15:46;-11160.47;;;-3.47;57.20
13954;BME280;7049;49.444;8.522;2023-05-02T22:20:49;-11160.47;;;-3.47;58.04
13954;BME280;7049;49.444;8.522;2023-05-02T22:25:53;-11160.47;;;-3.47;58.52
13954;BME280;7049;49.444;8.522;2023-05-02T22:30:54;-11160.47;;;-3.47;59.15
13954;BME280;7049;49.444;8.522;2023-05-02T22:35:56;-11160.47;;;-3.47;59.82
13954;BME280;7049;49.444;8.522;2023-05-02T22:40:59;-11160.47;;;-3.47;60.58
13954;BME280;7049;49.444;8.522;2023-05-02T22:46:00;-11160.47;;;-3.47;60.86
13954;BME280;7049;49.444;8.522;2023-05-02T22:51:02;-11160.47;;;-3.47;61.60
13954;BME280;7049;49.444;8.522;2023-05-02T22:56:05;-11160.47;;;-3.47;62.00
13954;BME280;7049;49.444;8.522;2023-05-02T23:01:07;-11160.47;;;-3.47;62.78
13954;BME280;7049;49.444;8.522;2023-05-02T23:06:08;-11160.47;;;-3.47;63.38
13954;BME280;7049;49.444;8.522;2023-05-02T23:11:11;-11160.47;;;-3.47;63.51
13954;BME280;7049;49.444;8.522;2023-05-02T23:16:12;-11160.47;;;-3.47;62.62
13954;BME280;7049;49.444;8.522;2023-05-02T23:21:15;-11160.47;;;-3.47;62.92
13954;BME280;7049;49.444;8.522;2023-05-02T23:26:18;-11160.47;;;-3.47;63.32
13954;BME280;7049;49.444;8.522;2023-05-02T23:31:20;-11160.47;;;-3.47;63.87
13954;BME280;7049;49.444;8.522;2023-05-02T23:36:21;-11160.47;;;-3.47;64.28
13954;BME280;7049;49.444;8.522;2023-05-02T23:41:24;-11160.47;;;-3.47;64.59
13954;BME280;7049;49.444;8.522;2023-05-02T23:46:27;-11160.47;;;-3.47;65.10
13954;BME280;7049;49.444;8.522;2023-05-02T23:51:28;-11160.47;;;-3.47;64.42
13954;BME280;7049;49.444;8.522;2023-05-02T23:56:32;-11160.47;;;-3.47;65.19
